Doris Moran — WRU2125 — position and weather

sailwx.info

Track history (hours):
 
Tides and Currents Weather Stations Pressure Air Temp Water Temp Dewpoint Dewpoint Depression Visibility Wind Speed Wind Dir Waves Ship Positions

Doris Moran

Owner: MORAN TOWING CORPORATION, New Canaan, CT. More information available from US FCC via Universal Licensing System and Coast Guard Vessel Documentation Center.

Last reported at 2015-Jul-06 00:33 UTC. Time now 2015-Jul-06 00:58 UTC.
Position N 40°38' W 074°08'.

Length 36 m; draft 5.3 m.

Type: Ship. MMSI: 366939790.

Date/timePositionNaut miles runAvg speedWind from/ knotsBaromVisibWave heightAir tempDewpointWater temp
2015-Jul-06 00:33N 40°38' W 074°08'0 0.0
2015-Jul-05 23:33N 40°38' W 074°08'0 0.0
2015-Jul-05 22:33N 40°38' W 074°08'0 0.0
2015-Jul-05 21:33N 40°38' W 074°08'0 0.0
2015-Jul-05 20:33N 40°38' W 074°08'0 0.0
2015-Jul-05 19:33N 40°38' W 074°08'0 0.0
2015-Jul-05 18:32N 40°38' W 074°08'0 0.0
2015-Jul-05 17:33N 40°38' W 074°08'0 0.0
2015-Jul-05 16:21N 40°38' W 074°08'0 0.0
2015-Jul-05 11:32N 40°38' W 074°08'0 0.0
2015-Jul-05 10:26N 40°38' W 074°08'1 1.2
2015-Jul-05 09:33N 40°39' W 074°09'0 0.1
2015-Jul-05 08:33N 40°39' W 074°09'4 3.9
2015-Jul-05 07:33N 40°38' W 074°04'3 3.0
2015-Jul-05 06:33N 40°38' W 074°08'0 0.0
2015-Jul-05 05:33N 40°38' W 074°08'3 2.8
2015-Jul-05 04:33N 40°38' W 074°04'0 0.3
2015-Jul-05 03:33N 40°38' W 074°04'7 7.4
2015-Jul-05 02:33N 40°44' W 073°58'1 0.6
2015-Jul-05 01:33N 40°44' W 073°58'0 0.0
2015-Jul-05 00:33N 40°44' W 073°58'0 0.3
2015-Jul-04 23:33N 40°44' W 073°58'5 5.0
2015-Jul-04 22:33N 40°40' W 074°02'3 3.1
2015-Jul-04 21:33N 40°38' W 074°04'0 0.0
2015-Jul-04 20:33N 40°38' W 074°04'0 0.0
2015-Jul-04 19:33N 40°38' W 074°04'0 0.0
2015-Jul-04 18:33N 40°38' W 074°04'1 0.6
2015-Jul-04 17:33N 40°38' W 074°04'3 2.9
2015-Jul-04 16:33N 40°39' W 074°08'3 3.4
2015-Jul-04 15:33N 40°38' W 074°12'7 2.3
2015-Jul-04 12:33N 40°31' W 074°15'7 7.4
2015-Jul-04 11:33N 40°38' W 074°12'3 3.1
2015-Jul-04 10:33N 40°38' W 074°08'0 0.0
2015-Jul-04 09:33N 40°38' W 074°08'0 0.0
2015-Jul-04 08:33N 40°38' W 074°08'0 0.0
2015-Jul-04 07:31N 40°38' W 074°08'0 0.0
2015-Jul-04 06:33N 40°38' W 074°08'0 0.0
2015-Jul-04 05:33N 40°38' W 074°08'0 0.0
2015-Jul-04 04:33N 40°38' W 074°08'0 0.0
2015-Jul-04 03:33N 40°38' W 074°08'0 0.0
2015-Jul-04 01:33N 40°38' W 074°08'0 0.0
2015-Jul-04 00:33N 40°38' W 074°08'0 0.0
2015-Jul-03 23:32N 40°38' W 074°08'0 0.0
2015-Jul-03 22:31N 40°38' W 074°08'0 0.0
2015-Jul-03 21:33N 40°38' W 074°08'0 0.0
2015-Jul-03 20:33N 40°38' W 074°08'0 0.0
2015-Jul-03 19:33N 40°38' W 074°08'0 0.0
2015-Jul-03 18:33N 40°38' W 074°08'0 0.0
2015-Jul-03 17:33N 40°38' W 074°08'0 0.0
2015-Jul-03 16:33N 40°38' W 074°08'0 0.0
2015-Jul-03 15:33N 40°38' W 074°08'0 0.0
2015-Jul-03 14:29N 40°38' W 074°08'0 0.0
2015-Jul-03 11:32N 40°38' W 074°08'0 0.0
2015-Jul-03 10:33N 40°38' W 074°08'0 0.0
2015-Jul-03 09:29N 40°38' W 074°08'0 0.0
2015-Jul-03 08:33N 40°38' W 074°08'0 0.0
2015-Jul-03 07:33N 40°38' W 074°08'0 0.0
2015-Jul-03 06:33N 40°38' W 074°08'0 0.0
2015-Jul-03 05:33N 40°38' W 074°08'0 0.4
2015-Jul-03 04:33N 40°39' W 074°08'2 1.6
2015-Jul-03 03:33N 40°40' W 074°09'0 0.0
2015-Jul-03 02:33N 40°40' W 074°09'0 0.1
2015-Jul-03 01:33N 40°40' W 074°09'1 0.6
2015-Jul-03 00:33N 40°41' W 074°09'3 2.7
2015-Jul-02 23:33N 40°39' W 074°06'4 4.1
2015-Jul-02 22:33N 40°41' W 074°01'4 3.8
2015-Jul-02 21:33N 40°39' W 074°05'4 4.0
2015-Jul-02 20:33N 40°42' W 074°09'4 3.3
2015-Jul-02 19:30N 40°38' W 074°08'0 0.0
2015-Jul-02 18:23N 40°38' W 074°08'0 0.0
2015-Jul-02 17:33N 40°38' W 074°08'0 0.0
2015-Jul-02 16:33N 40°38' W 074°08'0 0.4
2015-Jul-02 15:33N 40°39' W 074°08'1 1.2
2015-Jul-02 14:33N 40°40' W 074°09'1 1.4
2015-Jul-02 13:34N 40°39' W 074°08'0 0.1
2015-Jul-02 12:33N 40°38' W 074°08'0 0.0
2015-Jul-02 11:33N 40°38' W 074°08'1 0.7
2015-Jul-02 10:33N 40°38' W 074°09'2 2.3
2015-Jul-02 09:33N 40°41' W 074°09'2 1.9
2015-Jul-02 08:34N 40°39' W 074°09'1 1.0
2015-Jul-02 07:33N 40°38' W 074°08'0 0.0
2015-Jul-02 06:33N 40°38' W 074°08'0 0.0
2015-Jul-02 05:32N 40°38' W 074°08'0 0.0
2015-Jul-02 04:33N 40°38' W 074°08'0 0.0
2015-Jul-02 03:33N 40°38' W 074°08'0 0.0
2015-Jul-02 02:25N 40°38' W 074°08'0 0.0
2015-Jul-02 01:32N 40°38' W 074°08'0 0.0
2015-Jul-02 00:12N 40°38' W 074°08'2 1.0
2015-Jul-01 22:34N 40°40' W 074°09'1 1.1
2015-Jul-01 21:33N 40°39' W 074°09'1 1.0
2015-Jul-01 20:33N 40°38' W 074°08'2 2.0
2015-Jul-01 19:34N 40°40' W 074°08'2 1.6
2015-Jul-01 18:34N 40°39' W 074°09'1 0.3
2015-Jul-01 15:29N 40°38' W 074°08'0 0.0
2015-Jul-01 14:33N 40°38' W 074°08'0 0.0
2015-Jul-01 13:27N 40°38' W 074°08'0 0.0
2015-Jul-01 12:33N 40°38' W 074°08'0 0.0
2015-Jul-01 11:33N 40°38' W 074°08'1 1.3
2015-Jul-01 10:33N 40°39' W 074°09'1 0.5
2015-Jul-01 09:33N 40°40' W 074°08'4 4.3
2015-Jul-01 08:33N 40°38' W 074°03'4 3.5
2015-Jul-01 07:33N 40°38' W 074°08'0 0.0
2015-Jul-01 06:33N 40°38' W 074°08'0 0.0
2015-Jul-01 05:33N 40°38' W 074°08'0 0.0
2015-Jul-01 04:33N 40°38' W 074°08'0 0.0
2015-Jul-01 03:33N 40°38' W 074°08'0 0.0
2015-Jul-01 02:33N 40°38' W 074°08'0 0.0
2015-Jul-01 01:33N 40°38' W 074°08'1 1.0
2015-Jul-01 00:34N 40°39' W 074°09'3 2.6
2015-Jun-30 23:33N 40°41' W 074°08'4 4.1
2015-Jun-30 22:33N 40°40' W 074°03'2 2.3
2015-Jun-30 21:33N 40°39' W 074°06'2 1.7
2015-Jun-30 20:32N 40°38' W 074°08'0 0.0
2015-Jun-30 19:33N 40°38' W 074°08'0 0.0
2015-Jun-30 18:33N 40°38' W 074°08'0 0.0
2015-Jun-30 17:33N 40°38' W 074°08'0 0.0
2015-Jun-30 16:30N 40°38' W 074°08'0 0.0
2015-Jun-30 15:32N 40°38' W 074°08'2 2.0
2015-Jun-30 14:33N 40°39' W 074°05'10 9.8
2015-Jun-30 13:33N 40°48' W 073°59'1110.2
2015-Jun-30 12:30N 40°58' W 073°54'1210.3
2015-Jun-30 11:22N 41°09' W 073°54'16 0.7
2015-Jun-29 12:03N 40°53' W 073°56'611.3
2015-Jun-29 11:33N 40°48' W 073°59'8 8.1
2015-Jun-29 10:33N 40°40' W 074°01'0 0.3
2015-Jun-29 09:33N 40°40' W 074°00'0 0.0
2015-Jun-29 08:33N 40°40' W 074°00'0 0.0
2015-Jun-29 07:33N 40°40' W 074°00'0 0.0
2015-Jun-29 06:33N 40°40' W 074°00'0 0.0
2015-Jun-29 05:33N 40°40' W 074°00'0 0.0
2015-Jun-29 04:33N 40°40' W 074°00'0 0.0
2015-Jun-29 03:33N 40°40' W 074°00'0 0.0
2015-Jun-29 02:33N 40°40' W 074°00'2 2.2
2015-Jun-29 01:33N 40°39' W 074°03'4 3.4
2015-Jun-29 00:24N 40°38' W 074°08'8 1.5
2015-Jun-28 19:09N 40°33' W 074°15'0 0.3
2015-Jun-28 18:30N 40°33' W 074°15'3 2.1
2015-Jun-28 17:09N 40°30' W 074°15'2 2.6
2015-Jun-28 16:23N 40°32' W 074°15'7 9.1
2015-Jun-28 15:34N 40°39' W 074°11'3 2.5
2015-Jun-28 14:33N 40°38' W 074°08'4 4.3
2015-Jun-28 13:33N 40°39' W 074°02'0 0.0
2015-Jun-28 12:33N 40°39' W 074°02'0 0.0
2015-Jun-28 11:33N 40°40' W 074°02'0 0.0
2015-Jun-28 10:33N 40°40' W 074°02'0 0.0
2015-Jun-28 09:33N 40°40' W 074°02'0 0.0
2015-Jun-28 08:33N 40°40' W 074°02'0 0.0
2015-Jun-28 07:33N 40°40' W 074°02'0 0.0
2015-Jun-28 06:33N 40°39' W 074°02'3 2.6
2015-Jun-28 05:33N 40°39' W 074°06'2 1.7
2015-Jun-28 04:33N 40°38' W 074°08'0 0.0
2015-Jun-28 03:33N 40°38' W 074°08'0 0.0
2015-Jun-28 02:33N 40°38' W 074°08'0 0.0
2015-Jun-28 01:33N 40°38' W 074°08'0 0.0
2015-Jun-28 00:33N 40°38' W 074°08'0 0.0
2015-Jun-27 23:33N 40°38' W 074°08'0 0.0
2015-Jun-27 22:33N 40°38' W 074°08'3 3.1
2015-Jun-27 21:33N 40°42' W 074°08'3 2.9
2015-Jun-27 20:33N 40°39' W 074°07'2 2.4
2015-Jun-27 19:33N 40°40' W 074°04'0 0.0
2015-Jun-27 18:33N 40°40' W 074°04'0 0.0
2015-Jun-27 17:33N 40°40' W 074°04'0 0.0
2015-Jun-27 16:33N 40°40' W 074°04'0 0.0
2015-Jun-27 15:33N 40°40' W 074°04'2 2.1
2015-Jun-27 14:33N 40°39' W 074°07'0 0.0
2015-Jun-27 13:33N 40°39' W 074°07'1 1.0
2015-Jun-27 12:34N 40°39' W 074°08'0 0.0
2015-Jun-27 11:33N 40°38' W 074°08'0 0.0
2015-Jun-27 10:33N 40°38' W 074°08'0 0.0
2015-Jun-27 09:33N 40°38' W 074°08'0 0.0
2015-Jun-27 08:33N 40°38' W 074°08'0 0.0
2015-Jun-27 07:33N 40°38' W 074°08'0 0.0
2015-Jun-27 06:33N 40°38' W 074°08'0 0.0
2015-Jun-27 05:33N 40°38' W 074°08'0 0.0
2015-Jun-27 04:33N 40°38' W 074°08'0 0.0
2015-Jun-27 03:33N 40°38' W 074°08'0 0.0
2015-Jun-27 02:33N 40°38' W 074°08'0 0.0
2015-Jun-27 01:33N 40°38' W 074°08'0 0.0
2015-Jun-27 00:33N 40°38' W 074°08'3 2.9
2015-Jun-26 23:33N 40°38' W 074°12'3 1.1
2015-Jun-26 20:22N 40°35' W 074°13'1 0.8
2015-Jun-26 18:31N 40°36' W 074°12'4 4.1
2015-Jun-26 17:33N 40°38' W 074°08'0 0.0
2015-Jun-26 16:33N 40°38' W 074°08'0 0.0
2015-Jun-26 15:33N 40°38' W 074°08'0 0.0
2015-Jun-26 14:33N 40°38' W 074°08'0 0.0
2015-Jun-26 13:33N 40°38' W 074°08'0 0.0
2015-Jun-26 12:32N 40°38' W 074°08'0 0.0
2015-Jun-26 11:30N 40°38' W 074°08'0 0.0
2015-Jun-26 10:31N 40°38' W 074°08'0 0.0
2015-Jun-26 09:33N 40°38' W 074°08'0 0.0
2015-Jun-26 04:19N 40°38' W 074°08'0 0.0
2015-Jun-26 03:24N 40°38' W 074°08'0 0.0
2015-Jun-26 02:22N 40°38' W 074°08'  
Track history (hours):
 
Tides and Currents Weather Stations Pressure Air Temp Water Temp Dewpoint Dewpoint Depression Visibility Wind Speed Wind Dir Waves Ship Positions

Doris Moran

Owner: MORAN TOWING CORPORATION, New Canaan, CT. More information available from US FCC via Universal Licensing System and Coast Guard Vessel Documentation Center.

Last reported at 2015-Jul-06 00:33 UTC. Time now 2015-Jul-06 00:58 UTC.
Position N 40°38' W 074°08'.

Length 36 m; draft 5.3 m.

Type: Ship. MMSI: 366939790.

Date/timePositionNaut miles runAvg speedWind from/ knotsBaromVisibWave heightAir tempDewpointWater temp
2015-Jul-06 00:33N 40°38' W 074°08'0 0.0
2015-Jul-05 23:33N 40°38' W 074°08'0 0.0
2015-Jul-05 22:33N 40°38' W 074°08'0 0.0
2015-Jul-05 21:33N 40°38' W 074°08'0 0.0
2015-Jul-05 20:33N 40°38' W 074°08'0 0.0
2015-Jul-05 19:33N 40°38' W 074°08'0 0.0
2015-Jul-05 18:32N 40°38' W 074°08'0 0.0
2015-Jul-05 17:33N 40°38' W 074°08'0 0.0
2015-Jul-05 16:21N 40°38' W 074°08'0 0.0
2015-Jul-05 11:32N 40°38' W 074°08'0 0.0
2015-Jul-05 10:26N 40°38' W 074°08'1 1.2
2015-Jul-05 09:33N 40°39' W 074°09'0 0.1
2015-Jul-05 08:33N 40°39' W 074°09'4 3.9
2015-Jul-05 07:33N 40°38' W 074°04'3 3.0
2015-Jul-05 06:33N 40°38' W 074°08'0 0.0
2015-Jul-05 05:33N 40°38' W 074°08'3 2.8
2015-Jul-05 04:33N 40°38' W 074°04'0 0.3
2015-Jul-05 03:33N 40°38' W 074°04'7 7.4
2015-Jul-05 02:33N 40°44' W 073°58'1 0.6
2015-Jul-05 01:33N 40°44' W 073°58'0 0.0
2015-Jul-05 00:33N 40°44' W 073°58'0 0.3
2015-Jul-04 23:33N 40°44' W 073°58'5 5.0
2015-Jul-04 22:33N 40°40' W 074°02'3 3.1
2015-Jul-04 21:33N 40°38' W 074°04'0 0.0
2015-Jul-04 20:33N 40°38' W 074°04'0 0.0
2015-Jul-04 19:33N 40°38' W 074°04'0 0.0
2015-Jul-04 18:33N 40°38' W 074°04'1 0.6
2015-Jul-04 17:33N 40°38' W 074°04'3 2.9
2015-Jul-04 16:33N 40°39' W 074°08'3 3.4
2015-Jul-04 15:33N 40°38' W 074°12'7 2.3
2015-Jul-04 12:33N 40°31' W 074°15'7 7.4
2015-Jul-04 11:33N 40°38' W 074°12'3 3.1
2015-Jul-04 10:33N 40°38' W 074°08'0 0.0
2015-Jul-04 09:33N 40°38' W 074°08'0 0.0
2015-Jul-04 08:33N 40°38' W 074°08'0 0.0
2015-Jul-04 07:31N 40°38' W 074°08'0 0.0
2015-Jul-04 06:33N 40°38' W 074°08'0 0.0
2015-Jul-04 05:33N 40°38' W 074°08'0 0.0
2015-Jul-04 04:33N 40°38' W 074°08'0 0.0
2015-Jul-04 03:33N 40°38' W 074°08'0 0.0
2015-Jul-04 01:33N 40°38' W 074°08'0 0.0
2015-Jul-04 00:33N 40°38' W 074°08'0 0.0
2015-Jul-03 23:32N 40°38' W 074°08'0 0.0
2015-Jul-03 22:31N 40°38' W 074°08'0 0.0
2015-Jul-03 21:33N 40°38' W 074°08'0 0.0
2015-Jul-03 20:33N 40°38' W 074°08'0 0.0
2015-Jul-03 19:33N 40°38' W 074°08'0 0.0
2015-Jul-03 18:33N 40°38' W 074°08'0 0.0
2015-Jul-03 17:33N 40°38' W 074°08'0 0.0
2015-Jul-03 16:33N 40°38' W 074°08'0 0.0
2015-Jul-03 15:33N 40°38' W 074°08'0 0.0
2015-Jul-03 14:29N 40°38' W 074°08'0 0.0
2015-Jul-03 11:32N 40°38' W 074°08'0 0.0
2015-Jul-03 10:33N 40°38' W 074°08'0 0.0
2015-Jul-03 09:29N 40°38' W 074°08'0 0.0
2015-Jul-03 08:33N 40°38' W 074°08'0 0.0
2015-Jul-03 07:33N 40°38' W 074°08'0 0.0
2015-Jul-03 06:33N 40°38' W 074°08'0 0.0
2015-Jul-03 05:33N 40°38' W 074°08'0 0.4
2015-Jul-03 04:33N 40°39' W 074°08'2 1.6
2015-Jul-03 03:33N 40°40' W 074°09'0 0.0
2015-Jul-03 02:33N 40°40' W 074°09'0 0.1
2015-Jul-03 01:33N 40°40' W 074°09'1 0.6
2015-Jul-03 00:33N 40°41' W 074°09'3 2.7
2015-Jul-02 23:33N 40°39' W 074°06'4 4.1
2015-Jul-02 22:33N 40°41' W 074°01'4 3.8
2015-Jul-02 21:33N 40°39' W 074°05'4 4.0
2015-Jul-02 20:33N 40°42' W 074°09'4 3.3
2015-Jul-02 19:30N 40°38' W 074°08'0 0.0
2015-Jul-02 18:23N 40°38' W 074°08'0 0.0
2015-Jul-02 17:33N 40°38' W 074°08'0 0.0
2015-Jul-02 16:33N 40°38' W 074°08'0 0.4
2015-Jul-02 15:33N 40°39' W 074°08'1 1.2
2015-Jul-02 14:33N 40°40' W 074°09'1 1.4
2015-Jul-02 13:34N 40°39' W 074°08'0 0.1
2015-Jul-02 12:33N 40°38' W 074°08'0 0.0
2015-Jul-02 11:33N 40°38' W 074°08'1 0.7
2015-Jul-02 10:33N 40°38' W 074°09'2 2.3
2015-Jul-02 09:33N 40°41' W 074°09'2 1.9
2015-Jul-02 08:34N 40°39' W 074°09'1 1.0
2015-Jul-02 07:33N 40°38' W 074°08'0 0.0
2015-Jul-02 06:33N 40°38' W 074°08'0 0.0
2015-Jul-02 05:32N 40°38' W 074°08'0 0.0
2015-Jul-02 04:33N 40°38' W 074°08'0 0.0
2015-Jul-02 03:33N 40°38' W 074°08'0 0.0
2015-Jul-02 02:25N 40°38' W 074°08'0 0.0
2015-Jul-02 01:32N 40°38' W 074°08'0 0.0
2015-Jul-02 00:12N 40°38' W 074°08'2 1.0
2015-Jul-01 22:34N 40°40' W 074°09'1 1.1
2015-Jul-01 21:33N 40°39' W 074°09'1 1.0
2015-Jul-01 20:33N 40°38' W 074°08'2 2.0
2015-Jul-01 19:34N 40°40' W 074°08'2 1.6
2015-Jul-01 18:34N 40°39' W 074°09'1 0.3
2015-Jul-01 15:29N 40°38' W 074°08'0 0.0
2015-Jul-01 14:33N 40°38' W 074°08'0 0.0
2015-Jul-01 13:27N 40°38' W 074°08'0 0.0
2015-Jul-01 12:33N 40°38' W 074°08'0 0.0
2015-Jul-01 11:33N 40°38' W 074°08'1 1.3
2015-Jul-01 10:33N 40°39' W 074°09'1 0.5
2015-Jul-01 09:33N 40°40' W 074°08'4 4.3
2015-Jul-01 08:33N 40°38' W 074°03'4 3.5
2015-Jul-01 07:33N 40°38' W 074°08'0 0.0
2015-Jul-01 06:33N 40°38' W 074°08'0 0.0
2015-Jul-01 05:33N 40°38' W 074°08'0 0.0
2015-Jul-01 04:33N 40°38' W 074°08'0 0.0
2015-Jul-01 03:33N 40°38' W 074°08'0 0.0
2015-Jul-01 02:33N 40°38' W 074°08'0 0.0
2015-Jul-01 01:33N 40°38' W 074°08'1 1.0
2015-Jul-01 00:34N 40°39' W 074°09'3 2.6
2015-Jun-30 23:33N 40°41' W 074°08'4 4.1
2015-Jun-30 22:33N 40°40' W 074°03'2 2.3
2015-Jun-30 21:33N 40°39' W 074°06'2 1.7
2015-Jun-30 20:32N 40°38' W 074°08'0 0.0
2015-Jun-30 19:33N 40°38' W 074°08'0 0.0
2015-Jun-30 18:33N 40°38' W 074°08'0 0.0
2015-Jun-30 17:33N 40°38' W 074°08'0 0.0
2015-Jun-30 16:30N 40°38' W 074°08'0 0.0
2015-Jun-30 15:32N 40°38' W 074°08'2 2.0
2015-Jun-30 14:33N 40°39' W 074°05'10 9.8
2015-Jun-30 13:33N 40°48' W 073°59'1110.2
2015-Jun-30 12:30N 40°58' W 073°54'1210.3
2015-Jun-30 11:22N 41°09' W 073°54'16 0.7
2015-Jun-29 12:03N 40°53' W 073°56'611.3
2015-Jun-29 11:33N 40°48' W 073°59'8 8.1
2015-Jun-29 10:33N 40°40' W 074°01'0 0.3
2015-Jun-29 09:33N 40°40' W 074°00'0 0.0
2015-Jun-29 08:33N 40°40' W 074°00'0 0.0
2015-Jun-29 07:33N 40°40' W 074°00'0 0.0
2015-Jun-29 06:33N 40°40' W 074°00'0 0.0
2015-Jun-29 05:33N 40°40' W 074°00'0 0.0
2015-Jun-29 04:33N 40°40' W 074°00'0 0.0
2015-Jun-29 03:33N 40°40' W 074°00'0 0.0
2015-Jun-29 02:33N 40°40' W 074°00'2 2.2
2015-Jun-29 01:33N 40°39' W 074°03'4 3.4
2015-Jun-29 00:24N 40°38' W 074°08'8 1.5
2015-Jun-28 19:09N 40°33' W 074°15'0 0.3
2015-Jun-28 18:30N 40°33' W 074°15'3 2.1
2015-Jun-28 17:09N 40°30' W 074°15'2 2.6
2015-Jun-28 16:23N 40°32' W 074°15'7 9.1
2015-Jun-28 15:34N 40°39' W 074°11'3 2.5
2015-Jun-28 14:33N 40°38' W 074°08'4 4.3
2015-Jun-28 13:33N 40°39' W 074°02'0 0.0
2015-Jun-28 12:33N 40°39' W 074°02'0 0.0
2015-Jun-28 11:33N 40°40' W 074°02'0 0.0
2015-Jun-28 10:33N 40°40' W 074°02'0 0.0
2015-Jun-28 09:33N 40°40' W 074°02'0 0.0
2015-Jun-28 08:33N 40°40' W 074°02'0 0.0
2015-Jun-28 07:33N 40°40' W 074°02'0 0.0
2015-Jun-28 06:33N 40°39' W 074°02'3 2.6
2015-Jun-28 05:33N 40°39' W 074°06'2 1.7
2015-Jun-28 04:33N 40°38' W 074°08'0 0.0
2015-Jun-28 03:33N 40°38' W 074°08'0 0.0
2015-Jun-28 02:33N 40°38' W 074°08'0 0.0
2015-Jun-28 01:33N 40°38' W 074°08'0 0.0
2015-Jun-28 00:33N 40°38' W 074°08'0 0.0
2015-Jun-27 23:33N 40°38' W 074°08'0 0.0
2015-Jun-27 22:33N 40°38' W 074°08'3 3.1
2015-Jun-27 21:33N 40°42' W 074°08'3 2.9
2015-Jun-27 20:33N 40°39' W 074°07'2 2.4
2015-Jun-27 19:33N 40°40' W 074°04'0 0.0
2015-Jun-27 18:33N 40°40' W 074°04'0 0.0
2015-Jun-27 17:33N 40°40' W 074°04'0 0.0
2015-Jun-27 16:33N 40°40' W 074°04'0 0.0
2015-Jun-27 15:33N 40°40' W 074°04'2 2.1
2015-Jun-27 14:33N 40°39' W 074°07'0 0.0
2015-Jun-27 13:33N 40°39' W 074°07'1 1.0
2015-Jun-27 12:34N 40°39' W 074°08'0 0.0
2015-Jun-27 11:33N 40°38' W 074°08'0 0.0
2015-Jun-27 10:33N 40°38' W 074°08'0 0.0
2015-Jun-27 09:33N 40°38' W 074°08'0 0.0
2015-Jun-27 08:33N 40°38' W 074°08'0 0.0
2015-Jun-27 07:33N 40°38' W 074°08'0 0.0
2015-Jun-27 06:33N 40°38' W 074°08'0 0.0
2015-Jun-27 05:33N 40°38' W 074°08'0 0.0
2015-Jun-27 04:33N 40°38' W 074°08'0 0.0
2015-Jun-27 03:33N 40°38' W 074°08'0 0.0
2015-Jun-27 02:33N 40°38' W 074°08'0 0.0
2015-Jun-27 01:33N 40°38' W 074°08'0 0.0
2015-Jun-27 00:33N 40°38' W 074°08'3 2.9
2015-Jun-26 23:33N 40°38' W 074°12'3 1.1
2015-Jun-26 20:22N 40°35' W 074°13'1 0.8
2015-Jun-26 18:31N 40°36' W 074°12'4 4.1
2015-Jun-26 17:33N 40°38' W 074°08'0 0.0
2015-Jun-26 16:33N 40°38' W 074°08'0 0.0
2015-Jun-26 15:33N 40°38' W 074°08'0 0.0
2015-Jun-26 14:33N 40°38' W 074°08'0 0.0
2015-Jun-26 13:33N 40°38' W 074°08'0 0.0
2015-Jun-26 12:32N 40°38' W 074°08'0 0.0
2015-Jun-26 11:30N 40°38' W 074°08'0 0.0
2015-Jun-26 10:31N 40°38' W 074°08'0 0.0
2015-Jun-26 09:33N 40°38' W 074°08'0 0.0
2015-Jun-26 04:19N 40°38' W 074°08'0 0.0
2015-Jun-26 03:24N 40°38' W 074°08'0 0.0
2015-Jun-26 02:22N 40°38' W 074°08'  

Dump ship's entire track history